Marine City, Michigan
Current Conditions -  °F | °C
As of 2:57 PM on Wednesday 17 Dec 2014 (Local Time) from KPHN Reporting Station
Overcast Overcast  
Wind Chill: 20°   Ceiling: 2600
Heat Index: 30°   Visibility: 10mi
Dew Point: 23°   Wind: 14mph
Humidity: 75%   Direction: 270°W
Pressure: 30.03"   Gusts: 22mph
Location:  42.72°N, 82.49°W
Report Text: KPHN 171957Z AUTO 27012G19KT 230V320 10SM OVC026 M01/M05 A3003 RMK AO2
Loading
Personal Weather Stations






























Interactive Weather Map New forecast layout! Learn more

10-Day Weather Forecast

Advertisements
Track Severe Weather on mobile